createdAt,value
2022-09-13T00:02:00.000Z,3.90
2022-09-13T00:04:02.059Z,4.20
2022-09-13T00:06:09.583Z,3.95
2022-09-13T00:08:11.542Z,3.65
2022-09-13T00:10:13.621Z,3.88
2022-09-13T00:12:15.688Z,3.55
2022-09-13T00:14:17.643Z,4.03
2022-09-13T00:16:21.561Z,3.47
2022-09-13T00:18:23.384Z,3.75
2022-09-13T00:20:25.291Z,3.30
2022-09-13T00:22:27.382Z,3.30
2022-09-13T00:24:29.086Z,3.33
2022-09-13T00:26:30.835Z,3.55
2022-09-13T00:28:32.690Z,3.40
2022-09-13T00:30:34.582Z,3.25
2022-09-13T00:32:36.750Z,3.53
2022-09-13T00:34:38.576Z,3.20
2022-09-13T00:36:40.251Z,3.50
2022-09-13T00:38:42.966Z,3.53
2022-09-13T00:40:44.675Z,3.40
2022-09-13T00:42:46.353Z,3.20
2022-09-13T00:45:11.262Z,3.50
2022-09-13T00:47:17.735Z,3.58
2022-09-13T00:49:29.579Z,3.70
2022-09-13T00:51:32.126Z,3.10
2022-09-13T00:53:38.625Z,3.08
2022-09-13T00:55:49.352Z,3.40
2022-09-13T00:57:52.191Z,3.17
2022-09-13T01:00:02.460Z,3.67
2022-09-13T01:02:04.763Z,3.30
2022-09-13T01:04:09.738Z,3.17
2022-09-13T01:06:22.790Z,4.93
2022-09-13T01:08:24.615Z,4.35
2022-09-13T01:10:29.671Z,5.10
2022-09-13T01:12:52.774Z,4.90
2022-09-13T01:14:57.627Z,5.45
2022-09-13T01:16:59.526Z,4.78
2022-09-13T01:19:01.301Z,4.90
2022-09-13T01:21:32.085Z,5.80
2022-09-13T01:24:06.254Z,5.43
2022-09-13T01:26:07.900Z,5.88
2022-09-13T01:28:33.996Z,5.50
2022-09-13T01:30:42.455Z,4.90
2022-09-13T01:33:08.704Z,4.78
2022-09-13T01:35:24.075Z,6.05
2022-09-13T01:37:47.438Z,5.45
2022-09-13T01:40:05.627Z,5.32
2022-09-13T01:42:36.842Z,4.82
2022-09-13T01:45:16.639Z,5.57
2022-09-13T01:47:47.352Z,6.20
2022-09-13T01:50:01.074Z,15.65
2022-09-13T01:52:24.672Z,12.10
2022-09-13T01:54:38.508Z,10.27
2022-09-13T01:56:54.749Z,9.30
2022-09-13T01:59:05.504Z,7.45
2022-09-13T02:01:21.643Z,6.20
2022-09-13T02:04:05.968Z,6.10
2022-09-13T02:06:22.588Z,5.07
2022-09-13T02:08:56.173Z,4.30
2022-09-13T02:11:08.513Z,5.03
2022-09-13T02:13:25.539Z,5.57
2022-09-13T02:15:34.118Z,5.72
2022-09-13T02:17:43.160Z,6.00
2022-09-13T02:19:53.448Z,5.57
2022-09-13T02:21:59.876Z,5.18
2022-09-13T02:24:07.633Z,5.35
2022-09-13T02:26:13.248Z,4.63
2022-09-13T02:28:21.249Z,5.07
2022-09-13T02:30:22.943Z,5.30
2022-09-13T02:32:39.191Z,5.00
2022-09-13T02:35:16.086Z,5.32
2022-09-13T02:37:17.911Z,5.55
2022-09-13T02:39:24.481Z,5.50
2022-09-13T02:41:28.918Z,4.53
2022-09-13T02:43:42.632Z,5.07
2022-09-13T02:45:58.702Z,5.68
2022-09-13T02:48:08.362Z,6.05
2022-09-13T02:50:33.740Z,7.63
2022-09-13T02:52:50.801Z,6.80
2022-09-13T02:55:16.422Z,8.10
2022-09-13T02:57:30.016Z,6.05
2022-09-13T02:59:32.223Z,6.30
2022-09-13T03:01:37.622Z,5.93
2022-09-13T03:03:39.419Z,7.40
2022-09-13T03:05:41.836Z,8.00
2022-09-13T03:07:43.637Z,7.75
2022-09-13T03:10:07.789Z,9.07
2022-09-13T03:12:17.269Z,7.65
2022-09-13T03:14:40.760Z,7.20
2022-09-13T03:17:41.315Z,6.40
2022-09-13T03:20:14.067Z,8.05
2022-09-13T03:22:21.977Z,8.27
2022-09-13T03:24:31.595Z,7.57
2022-09-13T03:26:46.026Z,8.73
2022-09-13T03:29:15.397Z,7.80
2022-09-13T03:31:21.805Z,7.72
2022-09-13T03:33:42.747Z,8.80
2022-09-13T03:35:52.578Z,8.27
2022-09-13T03:38:11.912Z,7.45
2022-09-13T03:40:19.241Z,5.28
2022-09-13T03:42:37.679Z,6.28
2022-09-13T03:44:42.578Z,7.25
2022-09-13T03:46:51.886Z,7.25
2022-09-13T03:48:55.390Z,7.72
2022-09-13T03:50:57.244Z,7.30
2022-09-13T03:53:04.447Z,7.25
2022-09-13T03:55:06.374Z,6.85
2022-09-13T03:57:16.137Z,6.50
2022-09-13T03:59:18.446Z,6.05
2022-09-13T04:01:22.851Z,6.13
2022-09-13T04:03:24.829Z,6.68
2022-09-13T04:05:26.556Z,6.75
2022-09-13T04:07:28.463Z,6.70
2022-09-13T04:09:31.738Z,7.13
2022-09-13T04:11:33.562Z,7.25
2022-09-13T04:13:36.098Z,7.38
2022-09-13T04:15:37.927Z,7.10
2022-09-13T04:17:39.652Z,7.75
2022-09-13T04:19:41.840Z,9.23
2022-09-13T04:21:43.686Z,8.93
2022-09-13T04:23:50.421Z,8.98
2022-09-13T04:25:52.160Z,9.80
2022-09-13T04:27:58.615Z,11.15
2022-09-13T04:30:00.371Z,10.18
2022-09-13T04:32:02.283Z,9.75
2022-09-13T04:34:04.166Z,10.23
2022-09-13T04:36:06.079Z,9.23
2022-09-13T04:38:08.197Z,9.52
2022-09-13T04:40:11.316Z,9.52
2022-09-13T04:42:13.407Z,9.40
2022-09-13T04:44:17.014Z,9.77
2022-09-13T04:46:19.059Z,10.27
2022-09-13T04:48:20.963Z,11.20
2022-09-13T04:50:23.983Z,10.90
2022-09-13T04:52:25.975Z,10.23
2022-09-13T04:54:27.751Z,11.63
2022-09-13T04:56:29.470Z,9.55
2022-09-13T04:58:32.379Z,8.50
2022-09-13T05:00:34.418Z,9.00
2022-09-13T05:02:36.344Z,9.20
2022-09-13T05:04:38.287Z,9.40
2022-09-13T05:06:40.181Z,9.30
2022-09-13T05:08:41.881Z,9.18
2022-09-13T05:10:43.694Z,8.80
2022-09-13T05:12:46.151Z,9.52
2022-09-13T05:14:47.830Z,7.55
2022-09-13T05:16:49.499Z,9.20
2022-09-13T05:18:51.902Z,9.32
2022-09-13T05:21:01.310Z,8.30
2022-09-13T05:23:03.330Z,8.38
2022-09-13T05:25:05.715Z,8.77
2022-09-13T05:27:07.379Z,8.20
2022-09-13T05:29:09.396Z,10.38
2022-09-13T05:31:18.382Z,9.57
2022-09-13T05:33:20.154Z,9.43
2022-09-13T05:35:21.902Z,8.25
2022-09-13T05:37:23.897Z,8.98
2022-09-13T05:39:34.148Z,8.52
2022-09-13T05:41:45.816Z,7.82
2022-09-13T05:43:47.740Z,8.30
2022-09-13T05:45:49.790Z,7.53
2022-09-13T05:47:52.473Z,7.18
2022-09-13T05:50:11.087Z,7.72
2022-09-13T05:52:16.038Z,7.43
2022-09-13T05:54:17.852Z,7.30
2022-09-13T05:56:24.899Z,9.77
2022-09-13T05:58:26.653Z,7.38
2022-09-13T06:00:28.440Z,7.30
2022-09-13T06:02:31.512Z,7.55
2022-09-13T06:04:33.244Z,7.00
2022-09-13T06:06:35.301Z,7.72
2022-09-13T06:08:37.351Z,7.32
2022-09-13T06:10:39.116Z,9.25
2022-09-13T06:12:42.996Z,7.03
2022-09-13T06:14:44.774Z,8.55
2022-09-13T06:16:46.458Z,6.82
2022-09-13T06:18:48.540Z,7.85
2022-09-13T06:20:50.805Z,8.27
2022-09-13T06:22:52.515Z,8.30
2022-09-13T06:24:54.441Z,7.80
2022-09-13T06:26:56.247Z,7.90
2022-09-13T06:28:58.998Z,8.38
2022-09-13T06:31:11.848Z,7.45
2022-09-13T06:33:13.748Z,7.97
2022-09-13T06:35:15.527Z,7.20
2022-09-13T06:37:17.441Z,6.72
2022-09-13T06:39:19.281Z,7.40
2022-09-13T06:41:23.587Z,6.68
2022-09-13T06:43:25.557Z,6.15
2022-09-13T06:45:27.376Z,7.32
2022-09-13T06:47:29.115Z,6.38
2022-09-13T06:49:31.096Z,6.38
2022-09-13T06:51:34.269Z,6.55
2022-09-13T06:53:37.058Z,6.00
2022-09-13T06:55:39.005Z,6.15
2022-09-13T06:57:40.963Z,6.72
2022-09-13T06:59:42.672Z,6.25
2022-09-13T07:01:45.200Z,6.38
2022-09-13T07:03:49.374Z,6.85
2022-09-13T07:05:51.085Z,7.47
2022-09-13T07:07:52.950Z,5.53
2022-09-13T07:09:54.669Z,7.30
2022-09-13T07:11:56.819Z,6.78
2022-09-13T07:13:59.771Z,6.10
2022-09-13T07:16:03.406Z,6.10
2022-09-13T07:20:07.228Z,6.97
2022-09-13T07:22:08.928Z,5.97
2022-09-13T07:24:10.880Z,6.15
2022-09-13T07:26:12.626Z,5.80
2022-09-13T07:28:14.532Z,5.50
2022-09-13T07:30:16.287Z,6.03
2022-09-13T07:32:18.097Z,5.40
2022-09-13T07:34:22.644Z,5.03
2022-09-13T07:36:24.672Z,5.93
2022-09-13T07:38:26.464Z,6.80
2022-09-13T07:40:28.202Z,5.53
2022-09-13T07:42:29.916Z,5.70
2022-09-13T07:44:31.729Z,5.28
2022-09-13T07:46:34.788Z,7.60
2022-09-13T07:48:39.111Z,5.30
2022-09-13T07:50:40.929Z,6.65
2022-09-13T07:52:42.665Z,4.97
2022-09-13T07:54:44.406Z,5.35
2022-09-13T07:56:46.368Z,4.97
2022-09-13T07:58:49.938Z,4.70
2022-09-13T08:02:53.440Z,5.72
2022-09-13T08:04:55.281Z,6.50
2022-09-13T08:06:56.956Z,5.90
2022-09-13T08:08:58.971Z,4.95
2022-09-13T08:11:02.401Z,5.68
2022-09-13T08:13:04.125Z,5.57
2022-09-13T08:15:06.521Z,5.57
2022-09-13T08:17:08.258Z,5.25
2022-09-13T08:19:13.348Z,7.60
2022-09-13T08:21:15.617Z,6.40
2022-09-13T08:23:17.480Z,6.47
2022-09-13T08:25:19.159Z,6.90
2022-09-13T08:27:20.927Z,6.10
2022-09-13T08:29:22.700Z,5.97
2022-09-13T08:31:25.232Z,6.53
2022-09-13T08:33:27.021Z,6.63
2022-09-13T08:35:33.086Z,6.30
2022-09-13T08:37:34.796Z,5.70
2022-09-13T08:39:36.464Z,6.53
2022-09-13T08:41:41.309Z,6.00
2022-09-13T08:44:02.752Z,6.63
2022-09-13T08:46:32.652Z,6.40
2022-09-13T08:48:36.952Z,7.53
2022-09-13T08:50:39.999Z,9.75
2022-09-13T08:52:59.597Z,7.00
2022-09-13T08:55:17.311Z,6.60
2022-09-13T08:57:26.672Z,6.32
2022-09-13T09:00:03.828Z,6.20
2022-09-13T09:02:13.316Z,6.43
2022-09-13T09:04:34.711Z,5.97
2022-09-13T09:06:36.874Z,6.35
2022-09-13T09:08:51.739Z,6.50
2022-09-13T09:10:56.364Z,6.90
2022-09-13T09:13:23.881Z,7.45
2022-09-13T09:15:51.493Z,7.25
2022-09-13T09:17:56.016Z,6.97
2022-09-13T09:20:17.112Z,10.45
2022-09-13T09:22:21.222Z,6.53
2022-09-13T09:24:25.466Z,8.25
2022-09-13T09:26:30.729Z,6.70
2022-09-13T09:28:32.427Z,6.38
2022-09-13T09:30:43.928Z,6.32
2022-09-13T09:33:00.813Z,5.60
2022-09-13T09:35:05.303Z,6.57
2022-09-13T09:37:21.278Z,7.25
2022-09-13T09:39:29.560Z,7.15
2022-09-13T09:41:34.607Z,6.00
2022-09-13T09:43:46.834Z,6.90
2022-09-13T09:45:52.503Z,6.80
2022-09-13T09:47:56.330Z,6.38
2022-09-13T09:50:07.980Z,6.55
2022-09-13T09:52:13.099Z,6.18
2022-09-13T09:54:14.875Z,6.25
2022-09-13T09:56:25.992Z,6.55
2022-09-13T09:58:41.058Z,6.70
2022-09-13T10:00:59.265Z,6.55
2022-09-13T10:03:05.983Z,6.70
2022-09-13T10:05:08.199Z,7.25
2022-09-13T10:07:24.284Z,7.28
2022-09-13T10:09:26.112Z,7.65
2022-09-13T10:11:46.710Z,6.47
2022-09-13T10:14:00.701Z,6.50
2022-09-13T10:18:43.981Z,6.07
2022-09-13T10:20:40.007Z,6.20
2022-09-13T10:22:41.942Z,5.38
2022-09-13T10:24:43.766Z,5.40
2022-09-13T10:26:46.350Z,4.70
2022-09-13T10:29:00.354Z,4.97
2022-09-13T10:31:07.270Z,4.28
2022-09-13T10:33:30.369Z,4.15
2022-09-13T10:35:33.110Z,4.10
2022-09-13T10:37:35.906Z,3.83
2022-09-13T10:39:37.878Z,4.28
2022-09-13T10:41:42.314Z,4.18
2022-09-13T10:43:44.088Z,3.92
2022-09-13T10:45:50.335Z,3.13
2022-09-13T10:47:56.177Z,3.55
2022-09-13T10:49:59.246Z,3.83
2022-09-13T10:52:01.050Z,3.50
2022-09-13T10:54:18.209Z,3.90
2022-09-13T10:56:26.412Z,3.67
2022-09-13T10:58:28.342Z,3.22
2022-09-13T11:00:39.291Z,3.28
2022-09-13T11:02:56.356Z,3.20
2022-09-13T11:05:09.766Z,3.30
2022-09-13T11:07:21.002Z,3.17
2022-09-13T11:09:44.274Z,3.17
2022-09-13T11:11:56.339Z,3.78
2022-09-13T11:14:26.341Z,3.88
2022-09-13T11:16:43.080Z,3.55
2022-09-13T11:18:44.846Z,3.70
2022-09-13T11:21:07.525Z,3.30
2022-09-13T11:23:47.820Z,3.97
2022-09-13T11:26:09.415Z,3.95
2022-09-13T11:28:17.483Z,4.15
2022-09-13T11:30:25.376Z,4.18
2022-09-13T11:32:48.708Z,4.50
2022-09-13T11:35:22.107Z,3.70
2022-09-13T11:37:43.801Z,3.65
2022-09-13T11:40:20.023Z,3.58
2022-09-13T11:42:30.717Z,3.90
2022-09-13T11:44:50.910Z,5.03
2022-09-13T11:47:08.008Z,4.13
2022-09-13T11:49:28.058Z,4.10
2022-09-13T11:51:56.033Z,4.03
2022-09-13T11:54:05.061Z,3.50
2022-09-13T11:56:13.545Z,3.65
2022-09-13T11:58:21.884Z,4.28
2022-09-13T12:00:45.596Z,3.85
2022-09-13T12:03:07.572Z,4.07
2022-09-13T12:05:23.270Z,4.32
2022-09-13T12:08:00.861Z,3.90
2022-09-13T12:10:10.726Z,4.03
2022-09-13T12:12:13.928Z,3.80
2022-09-13T12:14:19.990Z,4.30
2022-09-13T12:16:39.486Z,4.07
2022-09-13T12:18:46.922Z,3.85
2022-09-13T12:20:52.728Z,4.63
2022-09-13T12:22:55.173Z,4.28
2022-09-13T12:25:02.785Z,4.43
2022-09-13T12:27:22.175Z,5.07
2022-09-13T12:29:50.481Z,5.05
2022-09-13T12:31:56.239Z,4.90
2022-09-13T12:33:59.635Z,4.55
2022-09-13T12:36:18.921Z,4.70
2022-09-13T12:38:24.635Z,4.45
2022-09-13T12:40:48.766Z,5.07
2022-09-13T12:43:19.070Z,4.68
2022-09-13T12:46:02.221Z,4.70
2022-09-13T12:48:10.162Z,5.10
2022-09-13T12:52:51.266Z,5.40
2022-09-13T12:55:46.481Z,4.65
2022-09-13T12:58:17.654Z,4.90
2022-09-13T13:00:22.038Z,4.65
2022-09-13T13:02:30.083Z,4.93
2022-09-13T13:04:35.504Z,4.43
2022-09-13T13:06:58.214Z,4.18
2022-09-13T13:09:04.844Z,4.40
2022-09-13T13:11:12.899Z,4.10
2022-09-13T13:13:35.052Z,4.57
2022-09-13T13:15:36.951Z,4.82
2022-09-13T13:17:49.487Z,5.20
2022-09-13T13:19:51.169Z,4.30
2022-09-13T13:21:52.974Z,3.90
2022-09-13T13:24:16.848Z,4.30
2022-09-13T13:26:21.231Z,4.32
2022-09-13T13:28:44.489Z,4.25
2022-09-13T13:30:54.157Z,4.43
2022-09-13T13:33:17.786Z,4.65
2022-09-13T13:35:30.805Z,4.72
2022-09-13T13:37:34.498Z,4.00
2022-09-13T13:39:44.151Z,4.50
2022-09-13T13:42:02.337Z,4.50
2022-09-13T13:44:16.425Z,4.32
2022-09-13T13:46:30.459Z,4.05
2022-09-13T13:48:42.444Z,4.65
2022-09-13T13:51:21.381Z,5.03
2022-09-13T13:53:35.833Z,5.97
2022-09-13T13:55:49.429Z,5.30
2022-09-13T13:58:01.738Z,7.00
2022-09-13T14:00:14.411Z,7.32
2022-09-13T14:02:22.298Z,6.10
2022-09-13T14:05:08.311Z,5.72
2022-09-13T14:07:19.806Z,5.10
2022-09-13T14:09:38.214Z,4.60
2022-09-13T14:12:01.892Z,4.47
2022-09-13T14:14:06.438Z,4.03
2022-09-13T14:16:27.364Z,4.63
2022-09-13T14:18:54.678Z,4.57
2022-09-13T14:21:05.641Z,4.82
2022-09-13T14:23:20.094Z,4.82
2022-09-13T14:25:25.537Z,4.68
2022-09-13T14:27:31.171Z,5.22
2022-09-13T14:29:32.970Z,5.38
2022-09-13T14:31:35.978Z,4.80
2022-09-13T14:33:37.931Z,5.10
2022-09-13T14:35:41.137Z,5.78
2022-09-13T14:37:42.950Z,6.80
2022-09-13T14:40:18.750Z,6.22
2022-09-13T14:42:20.537Z,5.10
2022-09-13T14:44:28.698Z,6.50
2022-09-13T14:46:41.313Z,6.32
2022-09-13T14:48:50.026Z,5.30
2022-09-13T14:51:00.622Z,5.35
2022-09-13T14:53:05.775Z,6.18
2022-09-13T14:55:14.487Z,6.68
2022-09-13T14:57:26.649Z,4.97
2022-09-13T14:59:51.800Z,5.80
2022-09-13T15:01:53.758Z,6.20
2022-09-13T15:03:58.438Z,4.40
2022-09-13T15:06:02.788Z,4.65
2022-09-13T15:08:32.775Z,4.65
2022-09-13T15:10:44.314Z,5.30
2022-09-13T15:13:02.320Z,3.85
2022-09-13T15:15:39.595Z,4.78
2022-09-13T15:17:55.144Z,4.45
2022-09-13T15:20:12.919Z,4.40
2022-09-13T15:22:24.989Z,4.53
2022-09-13T15:24:31.476Z,4.60
2022-09-13T15:26:33.174Z,4.35
2022-09-13T15:28:55.230Z,5.03
2022-09-13T15:30:59.595Z,4.85
2022-09-13T15:33:10.462Z,4.80
2022-09-13T15:35:18.260Z,4.50
2022-09-13T15:37:31.076Z,4.60
2022-09-13T15:40:08.271Z,4.82
2022-09-13T15:42:10.105Z,4.60
2022-09-13T15:44:11.999Z,4.70
2022-09-13T15:46:18.211Z,4.88
2022-09-13T15:48:27.365Z,5.15
2022-09-13T15:50:30.803Z,4.63
2022-09-13T15:52:32.765Z,5.18
2022-09-13T15:54:40.065Z,5.32
2022-09-13T15:56:44.968Z,5.07
2022-09-13T15:58:47.454Z,5.60
2022-09-13T16:00:49.243Z,5.38
2022-09-13T16:02:51.941Z,5.20
2022-09-13T16:04:53.770Z,5.55
2022-09-13T16:06:55.611Z,5.63
2022-09-13T16:08:57.402Z,5.30
2022-09-13T16:10:59.173Z,6.65
2022-09-13T16:13:01.011Z,5.72
2022-09-13T16:15:02.844Z,5.10
2022-09-13T16:17:07.876Z,5.97
2022-09-13T16:19:20.886Z,6.68
2022-09-13T16:21:22.549Z,6.40
2022-09-13T16:23:24.406Z,6.85
2022-09-13T16:25:26.263Z,8.07
2022-09-13T16:27:33.245Z,8.05
2022-09-13T16:29:35.580Z,7.53
2022-09-13T16:31:37.418Z,8.05
2022-09-13T16:33:39.199Z,8.70
2022-09-13T16:35:41.087Z,8.68
2022-09-13T16:37:43.453Z,8.13
2022-09-13T16:39:46.145Z,8.82
2022-09-13T16:41:47.994Z,9.10
2022-09-13T16:43:49.798Z,7.85
2022-09-13T16:45:51.650Z,8.85
2022-09-13T16:47:53.341Z,8.63
2022-09-13T16:49:55.185Z,9.80
2022-09-13T16:51:57.136Z,10.52
2022-09-13T16:53:59.795Z,9.90
2022-09-13T16:56:09.968Z,10.13
2022-09-13T16:58:12.035Z,9.95
2022-09-13T17:00:14.485Z,9.48
2022-09-13T17:02:16.587Z,10.13
2022-09-13T17:04:18.600Z,9.02
2022-09-13T17:06:21.548Z,8.70
2022-09-13T17:08:23.371Z,11.23
2022-09-13T17:10:25.373Z,11.27
2022-09-13T17:12:28.052Z,12.82
2022-09-13T17:14:29.912Z,13.88
2022-09-13T17:16:35.433Z,20.58
2022-09-13T17:18:37.199Z,18.63
2022-09-13T17:20:47.369Z,17.25
2022-09-13T17:22:49.121Z,17.90
2022-09-13T17:24:50.850Z,16.95
2022-09-13T17:26:53.108Z,20.77
2022-09-13T17:28:55.019Z,18.10
2022-09-13T17:30:59.476Z,17.58
2022-09-13T17:33:04.256Z,17.05
2022-09-13T17:35:07.052Z,33.10
2022-09-13T17:37:08.787Z,21.57
2022-09-13T17:39:11.027Z,19.60
2022-09-13T17:41:16.021Z,20.73
2022-09-13T17:43:17.748Z,24.20
2022-09-13T17:45:19.460Z,23.33
2022-09-13T17:47:21.381Z,24.38
2022-09-13T17:49:23.089Z,52.95
2022-09-13T17:51:27.828Z,57.08
2022-09-13T17:53:29.906Z,50.20
2022-09-13T17:55:31.631Z,40.65
2022-09-13T17:57:33.449Z,29.25
2022-09-13T17:59:35.367Z,27.65
2022-09-13T18:01:39.239Z,18.48
2022-09-13T18:03:41.420Z,19.73
2022-09-13T18:05:43.293Z,15.85
2022-09-13T18:07:44.990Z,16.27
2022-09-13T18:09:46.946Z,16.40
2022-09-13T18:11:49.359Z,16.08
2022-09-13T18:13:51.492Z,15.85
2022-09-13T18:16:01.639Z,18.83
2022-09-13T18:18:03.513Z,19.50
2022-09-13T18:20:05.465Z,18.75
2022-09-13T18:22:08.433Z,20.23
2022-09-13T18:24:10.398Z,19.02
2022-09-13T18:26:14.313Z,17.65
2022-09-13T18:28:16.021Z,18.70
2022-09-13T18:30:18.098Z,20.10
2022-09-13T18:32:19.869Z,16.40
2022-09-13T18:34:24.669Z,15.23
2022-09-13T18:36:31.008Z,16.65
2022-09-13T18:38:41.187Z,15.05
2022-09-13T18:40:42.857Z,16.63
2022-09-13T18:42:45.002Z,15.77
2022-09-13T18:44:47.027Z,17.13
2022-09-13T18:46:48.752Z,16.75
2022-09-13T18:48:52.710Z,15.52
2022-09-13T18:50:54.389Z,19.60
2022-09-13T18:52:56.089Z,19.70
2022-09-13T18:54:57.944Z,19.83
2022-09-13T18:56:59.677Z,19.52
2022-09-13T18:59:03.344Z,19.73
2022-09-13T19:03:12.840Z,22.40
2022-09-13T19:05:14.761Z,24.25
2022-09-13T19:07:16.501Z,26.00
2022-09-13T19:09:18.966Z,26.02
2022-09-13T19:11:45.243Z,24.58
2022-09-13T19:13:44.751Z,23.02
2022-09-13T19:15:46.486Z,25.80
2022-09-13T19:17:48.352Z,30.60
2022-09-13T19:19:50.286Z,28.60
2022-09-13T19:21:52.066Z,26.15
2022-09-13T19:24:01.511Z,30.73
2022-09-13T19:26:13.440Z,27.85
2022-09-13T19:28:15.143Z,20.73
2022-09-13T19:30:16.865Z,14.93
2022-09-13T19:32:18.840Z,12.85
2022-09-13T19:34:22.468Z,11.75
2022-09-13T19:38:29.553Z,10.23
2022-09-13T19:40:31.261Z,11.63
2022-09-13T19:42:32.960Z,10.52
2022-09-13T19:44:34.747Z,10.52
2022-09-13T19:46:39.020Z,10.02
2022-09-13T19:48:45.714Z,9.93
2022-09-13T19:50:48.030Z,10.63
2022-09-13T19:52:49.702Z,11.38
2022-09-13T19:54:51.431Z,10.88
2022-09-13T19:56:53.416Z,10.45
2022-09-13T19:58:55.683Z,10.20
2022-09-13T20:01:06.517Z,11.10
2022-09-13T20:03:08.756Z,10.05
2022-09-13T20:05:10.499Z,10.95
2022-09-13T20:07:12.325Z,10.18
2022-09-13T20:09:16.679Z,9.65
2022-09-13T20:11:19.366Z,10.23
2022-09-13T20:13:21.274Z,10.13
2022-09-13T20:15:24.941Z,9.10
2022-09-13T20:19:49.120Z,9.10
2022-09-13T20:21:50.113Z,9.70
2022-09-13T20:23:54.918Z,9.45
2022-09-13T20:25:56.653Z,10.30
2022-09-13T20:27:58.600Z,9.07
2022-09-13T20:30:00.403Z,9.02
2022-09-13T20:32:02.466Z,9.40
2022-09-13T20:34:06.683Z,8.60
2022-09-13T20:36:10.976Z,8.73
2022-09-13T20:38:12.679Z,8.77
2022-09-13T20:40:14.983Z,8.75
2022-09-13T20:42:16.928Z,8.55
2022-09-13T20:44:18.695Z,8.32
2022-09-13T20:46:21.642Z,8.60
2022-09-13T20:48:23.351Z,8.95
2022-09-13T20:50:25.072Z,8.60
2022-09-13T20:52:27.099Z,8.35
2022-09-13T20:54:28.785Z,8.25
2022-09-13T20:56:30.834Z,8.38
2022-09-13T20:58:32.934Z,8.20
2022-09-13T21:00:34.672Z,8.20
2022-09-13T21:02:36.401Z,8.63
2022-09-13T21:04:38.504Z,8.75
2022-09-13T21:06:41.990Z,8.48
2022-09-13T21:08:44.387Z,8.30
2022-09-13T21:10:59.329Z,8.57
2022-09-13T21:13:01.010Z,8.00
2022-09-13T21:15:02.968Z,8.18
2022-09-13T21:17:05.085Z,8.55
2022-09-13T21:19:07.406Z,8.27
2022-09-13T21:21:13.740Z,8.25
2022-09-13T21:23:15.479Z,8.07
2022-09-13T21:25:17.163Z,8.38
2022-09-13T21:27:19.295Z,8.05
2022-09-13T21:29:21.696Z,7.90
2022-09-13T21:31:29.030Z,8.60
2022-09-13T21:33:31.705Z,8.23
2022-09-13T21:35:38.223Z,8.18
2022-09-13T21:37:40.004Z,8.27
2022-09-13T21:39:41.764Z,8.88
2022-09-13T21:41:44.264Z,7.97
2022-09-13T21:43:46.489Z,7.70
2022-09-13T21:45:48.263Z,8.30
2022-09-13T21:47:50.110Z,8.07
2022-09-13T21:49:51.974Z,8.57
2022-09-13T21:51:53.863Z,8.10
2022-09-13T21:54:00.211Z,8.82
2022-09-13T21:56:10.053Z,8.57
2022-09-13T21:58:11.761Z,8.15
2022-09-13T22:00:14.164Z,7.20
2022-09-13T22:02:16.052Z,7.93
2022-09-13T22:04:22.503Z,7.90
2022-09-13T22:06:25.165Z,7.40
2022-09-13T22:08:27.229Z,7.78
2022-09-13T22:10:29.793Z,7.50
2022-09-13T22:12:36.286Z,7.00
2022-09-13T22:14:42.143Z,7.03
2022-09-13T22:16:45.479Z,6.95
2022-09-13T22:18:56.585Z,7.07
2022-09-13T22:21:06.857Z,8.18
2022-09-13T22:23:08.570Z,8.07
2022-09-13T22:25:10.655Z,7.78
2022-09-13T22:27:12.575Z,7.03
2022-09-13T22:29:14.905Z,7.53
2022-09-13T22:31:20.876Z,8.02
2022-09-13T22:33:22.758Z,7.65
2022-09-13T22:35:24.485Z,7.60
2022-09-13T22:37:26.466Z,7.60
2022-09-13T22:39:28.331Z,7.95
2022-09-13T22:41:32.086Z,7.80
2022-09-13T22:43:34.575Z,8.18
2022-09-13T22:45:36.341Z,8.80
2022-09-13T22:47:38.059Z,8.52
2022-09-13T22:49:40.003Z,9.30
2022-09-13T22:51:42.952Z,8.23
2022-09-13T22:53:46.640Z,9.05
2022-09-13T22:57:53.158Z,9.20
2022-09-13T22:59:54.874Z,9.52
2022-09-13T23:01:56.772Z,9.77
2022-09-13T23:04:00.685Z,10.45
2022-09-13T23:06:02.796Z,10.35
2022-09-13T23:08:05.907Z,11.02
2022-09-13T23:10:08.384Z,11.63
2022-09-13T23:12:10.109Z,10.90
2022-09-13T23:14:13.914Z,11.45
2022-09-13T23:16:24.152Z,11.15
2022-09-13T23:18:25.908Z,11.77
2022-09-13T23:20:27.604Z,12.23
2022-09-13T23:22:29.409Z,12.93
2022-09-13T23:24:31.128Z,12.07
2022-09-13T23:26:33.726Z,12.35
2022-09-13T23:28:36.860Z,12.65
2022-09-13T23:30:38.560Z,12.95
2022-09-13T23:32:40.451Z,13.07
2022-09-13T23:34:42.326Z,13.50
2022-09-13T23:36:45.130Z,13.65
2022-09-13T23:38:49.877Z,13.50
2022-09-13T23:40:51.619Z,14.35
2022-09-13T23:42:53.333Z,14.63
2022-09-13T23:44:55.265Z,14.32
2022-09-13T23:46:56.998Z,13.82
2022-09-13T23:48:58.683Z,14.90
2022-09-13T23:51:06.174Z,14.50
2022-09-13T23:53:07.924Z,14.70
2022-09-13T23:55:10.025Z,14.65
2022-09-13T23:57:13.164Z,14.70
2022-09-13T23:59:15.495Z,15.25
